Tropical Cyclones
[Index]
Main Index Home Page Stock Weather Photos Extreme Storms Discussion Storm News and Storm Chasing Reports Tropical Cyclones / Hurricanes / Typhoons Weather Data and Links Wild Fires / Bushfires Weather Observation Techniques Weather Picture Catalogue Tornado Pictures and Reports Stock Video Footage and DVDs for sale
Season 2005-2006 Tropical Cyclone JIM Track Map
Season 2005-2006 Summaries (Operational Data): [AU] [SIO] [SPAC] [SH]
<<- Previous TC | 2005-2006 Season | Next TC ->>

click for intensity scale information  Lat/long Grid: Show Hide

 Date Labels: Show Hide

Operational Tropical Cyclone Data : JTWC Advisories | BoM Warnings

Name: JIM
Number: 0610

26 Jan 2006 18:00 UTC to 02 Feb 2006 18:00 UTC

    date/time    lat    long     hPa   cat  kts
2006-01-26 18   17.5   147.5    1000         30          
2006-01-26 19   18.3   147.4     998         30          
2006-01-27 00   18.3   147.4     997         30          
2006-01-27 06   18.1   148.6     995         30          
2006-01-27 12   17.9   149.2     995         25          
2006-01-27 18   17.7   149.9     990         30          
2006-01-28 00   17.3   149.5     990    1    40          
2006-01-28 06   17.3   151.1     985    1    45          
2006-01-28 12   17.3   152.8     987    1    45          
2006-01-28 18   17.0   153.3     984    2    50          
2006-01-29 00   16.6   154.4     982    2    50          
2006-01-29 06   16.7   155.5     975    2    60          
2006-01-29 12   16.2   156.6     975    2    60          
2006-01-29 18   16.4   158.6     970    3    65          
2006-01-30 00   16.9   160.4     970    3    65          
2006-01-30 06   17.7   161.4     955    3    80          
2006-01-30 12   18.2   163.6     955    3    80          
2006-01-30 18   18.6   165.3     955    3    80          
2006-01-31 00   20.6   166.5     955    3    80          
2006-01-31 06   21.9   168.9     955    3    80          
2006-01-31 12   22.9   170.2     965    3    70          
2006-01-31 18   23.9   170.8     980    2    55          
2006-01-31 21   24.5   172.3     980    2    55          
2006-02-01 00   26.4   173.1     987    1    45          
2006-02-01 05   27.8   174.1     987    1    45          
2006-02-01 12   30.0   175.0     988    1    40          
2006-02-01 18   30.0   174.0     992    1    40          
2006-02-02 00   31.0   174.0     990    1    40          
2006-02-02 06   31.0   174.0     995    1    35          
2006-02-02 12   31.0   174.0     999    1    35          
2006-02-02 18   29.0   172.0     997         30          
Winds are 10-min average.

Tropical cyclone tracks developed by Michael Bath using operational warnings and advisories and Google Maps.


[Australian Severe Weather index] [Copyright Notice] [Email Contacts] [Search This Site] [Privacy Policy]
Document: tropical_cyclone_jim.htm Updated: 28 May 2013